Time;durP1;ratioP1;P1;durP2;ratioP2;P2;SDS_P1;SDS_P2;PMS_P1;PMS_P2;Temp;Humidity;BMP_temperature;BMP_pressure;BME280_temperature;BME280_humidity;BME280_pressure;Samples;Min_cycle;Max_cycle;Signal;HPM_P1;HPM_P2
2021/06/09 00:01:20;;;;;;;3.97;3.40;;;16.90;99.90;;;16.95;86.84;101858.16;4185249;28;20029;-67
2021/06/09 00:03:21;;;;;;;6.00;4.13;;;16.90;99.90;;;16.86;86.91;101851.19;4184031;28;20088;-67
2021/06/09 00:05:22;;;;;;;5.88;3.95;;;16.90;99.90;;;16.74;87.41;101850.72;4183926;28;20032;-67
2021/06/09 00:07:23;;;;;;;5.93;3.47;;;16.90;99.90;;;16.79;86.77;101858.19;4185256;28;20041;-67
2021/06/09 00:09:24;;;;;;;5.32;4.50;;;16.90;99.90;;;16.84;85.98;101853.22;4185156;28;20032;-67
2021/06/09 00:11:25;;;;;;;6.45;4.78;;;16.90;99.90;;;16.89;85.30;101850.84;4184806;28;20036;-67
2021/06/09 00:13:30;;;;;;;5.05;4.20;;;17.00;99.90;;;16.80;85.76;101847.38;4185053;28;20037;-67
2021/06/09 00:15:32;;;;;;;4.70;3.90;;;16.90;99.90;;;16.81;85.45;101856.22;4185280;28;20056;-67
2021/06/09 00:17:32;;;;;;;5.90;4.90;;;16.90;99.90;;;16.77;85.63;101854.88;4185173;28;20384;-67
2021/06/09 00:19:34;;;;;;;4.20;3.78;;;16.90;99.90;;;16.79;85.38;101858.19;4184906;28;20067;-67
2021/06/09 00:21:36;;;;;;;7.72;3.97;;;16.90;99.90;;;16.69;85.92;101854.91;4184976;28;20083;-67
2021/06/09 00:23:37;;;;;;;4.00;3.60;;;16.80;99.90;;;16.55;85.80;101859.06;4185102;28;20472;-67
2021/06/09 00:25:38;;;;;;;5.50;4.50;;;16.80;99.90;;;16.49;86.45;101859.69;4184600;28;20066;-67
2021/06/09 00:27:39;;;;;;;6.00;4.30;;;16.70;99.90;;;16.44;86.61;101854.88;4184962;28;20108;-67
2021/06/09 00:29:41;;;;;;;6.03;3.95;;;16.60;99.90;;;16.39;86.39;101857.22;4184785;28;20392;-67
2021/06/09 00:31:42;;;;;;;5.47;3.75;;;16.60;99.90;;;16.41;86.75;101857.88;4184847;28;20060;-67
2021/06/09 00:33:43;;;;;;;5.45;3.80;;;16.50;99.90;;;16.35;86.92;101855.88;4184750;28;20048;-67
2021/06/09 00:35:44;;;;;;;4.22;3.53;;;16.50;99.90;;;16.38;86.22;101854.72;4183485;28;20033;-67
2021/06/09 00:37:45;;;;;;;6.68;4.20;;;16.60;99.90;;;16.40;86.16;101853.53;4180553;28;20533;-67
2021/06/09 00:39:46;;;;;;;5.88;4.63;;;16.60;99.90;;;16.34;86.72;101861.34;4183532;28;20083;-67
2021/06/09 00:41:47;;;;;;;5.88;4.72;;;16.60;99.90;;;16.42;86.07;101850.72;4183399;28;20528;-67
2021/06/09 00:43:48;;;;;;;5.68;4.82;;;16.60;99.90;;;16.36;85.83;101854.88;4184551;28;20036;-67
2021/06/09 00:45:59;;;;;;;5.38;4.22;;;16.60;99.90;;;16.28;86.59;101848.69;4184609;28;20021;-69
2021/06/09 00:48:01;;;;;;;6.72;4.47;;;16.60;99.90;;;16.24;86.74;101850.88;4184687;28;20028;-68
2021/06/09 00:50:02;;;;;;;5.32;4.20;;;16.50;99.90;;;16.24;86.98;101848.22;4183512;28;20035;-68
2021/06/09 00:52:03;;;;;;;5.13;4.63;;;16.50;99.90;;;16.33;86.23;101844.56;4184564;28;20094;-67
2021/06/09 00:54:05;;;;;;;5.25;4.72;;;16.50;99.90;;;16.38;85.77;101852.88;4184652;28;20384;-67
2021/06/09 00:56:10;;;;;;;4.70;3.72;;;16.50;99.90;;;16.25;86.67;101847.22;4184413;28;20021;-67
2021/06/09 00:58:12;;;;;;;6.50;4.20;;;16.50;99.90;;;16.17;86.79;101843.72;4185001;28;20029;-68
2021/06/09 01:00:13;;;;;;;5.22;4.00;;;16.40;99.90;;;16.19;87.29;101847.88;4188084;28;20029;-69
2021/06/09 01:02:14;;;;;;;4.28;3.70;;;16.40;99.90;;;16.19;87.38;101844.41;4187694;28;20020;-69
2021/06/09 01:04:15;;;;;;;4.97;4.47;;;16.30;99.90;;;16.16;87.30;101836.75;4187831;28;20365;-69
2021/06/09 01:06:17;;;;;;;5.45;4.45;;;16.40;99.90;;;16.11;87.66;101839.06;4187838;28;20087;-68
2021/06/09 01:08:19;;;;;;;6.03;4.53;;;16.30;99.90;;;16.08;87.83;101837.56;4187839;28;20032;-69
2021/06/09 01:10:20;;;;;;;5.10;4.60;;;16.30;99.90;;;16.27;87.45;101839.06;4187590;28;20018;-69
2021/06/09 01:12:22;;;;;;;8.90;5.32;;;16.30;99.90;;;16.17;87.83;101833.06;4187263;28;20025;-69
2021/06/09 01:14:24;;;;;;;7.93;5.20;;;16.30;99.90;;;16.18;87.90;101842.72;4186479;28;20025;-67
2021/06/09 01:16:26;;;;;;;4.93;4.43;;;16.30;99.90;;;16.13;88.75;101843.22;4187531;28;20029;-67
2021/06/09 01:18:27;;;;;;;5.30;4.32;;;16.40;99.90;;;16.04;89.03;101836.22;4187473;28;20056;-67
2021/06/09 01:20:28;;;;;;;5.97;4.05;;;16.30;99.90;;;16.07;89.15;101838.53;4186394;28;20025;-67
2021/06/09 01:22:29;;;;;;;4.15;3.75;;;16.30;99.90;;;16.05;89.12;101836.06;4187533;28;20031;-67
2021/06/09 01:24:30;;;;;;;6.38;4.57;;;16.30;99.90;;;16.05;89.26;101832.56;4187441;28;20025;-67
2021/06/09 01:26:32;;;;;;;5.55;4.93;;;16.30;99.90;;;15.97;89.40;101825.41;4187121;28;20017;-67
2021/06/09 01:28:36;;;;;;;5.65;4.28;;;16.30;99.90;;;15.94;89.68;101838.22;4187523;28;20025;-68
2021/06/09 01:30:37;;;;;;;;;;;16.20;99.90;;;15.79;90.00;101822.06;4186728;28;20029;-69
2021/06/09 01:32:38;;;;;;;5.50;4.43;;;16.20;99.90;;;15.96;90.07;101823.75;4187342;28;19908;-70
2021/06/09 01:34:39;;;;;;;4.97;4.45;;;16.20;99.90;;;16.09;89.57;101830.41;4186009;28;20029;-68
2021/06/09 01:36:42;;;;;;;5.97;4.65;;;16.30;99.90;;;16.14;88.61;101820.94;4206203;28;20044;-69
2021/06/09 01:38:43;;;;;;;6.63;4.63;;;16.30;99.90;;;16.07;88.83;101819.09;4187384;28;20029;-67
2021/06/09 01:40:44;;;;;;;6.15;4.53;;;16.30;99.90;;;16.05;89.31;101827.25;4187076;28;20079;-67
2021/06/09 01:42:47;;;;;;;6.22;5.63;;;16.30;99.90;;;16.20;88.39;101830.06;4187172;28;20021;-69
2021/06/09 01:44:47;;;;;;;7.10;5.80;;;16.30;99.90;;;16.35;87.25;101826.59;4187464;28;20452;-69
2021/06/09 01:46:49;;;;;;;6.15;5.45;;;16.40;99.90;;;16.25;87.29;101823.25;4187283;28;20024;-67
2021/06/09 01:48:50;;;;;;;6.55;5.65;;;16.50;99.90;;;16.23;87.56;101824.41;4187260;28;20021;-69
2021/06/09 01:50:51;;;;;;;7.47;5.20;;;16.40;99.90;;;16.16;88.16;101829.56;4187108;28;20052;-69
2021/06/09 01:52:54;;;;;;;9.38;5.53;;;16.40;99.90;;;16.17;88.38;101831.25;4187257;28;20080;-69
2021/06/09 01:54:54;;;;;;;7.40;4.93;;;16.40;99.90;;;16.14;88.61;101831.56;4187331;28;20033;-69
2021/06/09 01:56:55;;;;;;;6.22;4.57;;;16.30;99.90;;;16.04;88.87;101830.88;4186638;28;20032;-69
2021/06/09 01:58:56;;;;;;;7.40;5.60;;;16.30;99.90;;;16.11;88.01;101831.06;4186893;28;20396;-69
2021/06/09 02:00:58;;;;;;;8.35;5.40;;;16.30;99.90;;;16.22;87.16;101828.09;4187126;28;20462;-69
2021/06/09 02:02:59;;;;;;;10.98;5.90;;;16.30;99.90;;;16.14;87.72;101826.25;4186103;28;20096;-69
2021/06/09 02:05:00;;;;;;;8.02;4.75;;;16.40;99.90;;;16.13;88.20;101819.25;4186953;28;20079;-69
2021/06/09 02:07:01;;;;;;;8.50;5.30;;;16.30;99.90;;;16.24;87.17;101810.97;4186925;28;20036;-69
2021/06/09 02:09:03;;;;;;;10.98;6.07;;;16.40;99.90;;;16.24;87.11;101810.13;4186603;28;20059;-69
2021/06/09 02:11:04;;;;;;;5.20;4.68;;;16.40;99.90;;;16.20;87.39;101809.63;4186702;28;20036;-69
2021/06/09 02:13:12;;;;;;;7.82;5.15;;;16.40;99.90;;;16.31;86.59;101814.59;4185714;28;20037;-69
2021/06/09 02:15:15;;;;;;;5.60;5.00;;;16.40;99.90;;;16.23;86.38;101814.59;4186783;28;20044;-70
2021/06/09 02:17:16;;;;;;;4.85;4.32;;;16.50;99.90;;;16.26;86.62;101813.44;4186906;28;20054;-70
2021/06/09 02:19:17;;;;;;;6.10;5.43;;;16.50;99.90;;;16.20;87.06;101812.28;4185538;28;20021;-69
2021/06/09 02:21:18;;;;;;;5.90;4.85;;;16.40;99.90;;;16.14;87.52;101812.94;4186804;28;20025;-69
2021/06/09 02:23:24;;;;;;;6.57;4.32;;;16.40;99.90;;;16.20;86.65;101812.28;4186656;28;20029;-69
2021/06/09 02:25:27;;;;;;;5.70;4.88;;;16.40;99.90;;;16.18;86.47;101800.13;4186773;28;20159;-69
2021/06/09 02:27:28;;;;;;;6.75;5.28;;;16.30;99.90;;;16.20;86.80;101808.78;4185637;28;20033;-69
2021/06/09 02:29:29;;;;;;;6.55;4.90;;;16.40;99.90;;;16.17;86.94;101804.63;4186696;28;20031;-69
2021/06/09 02:31:30;;;;;;;5.15;4.43;;;16.30;99.90;;;16.03;87.62;101808.78;4186494;28;20087;-69
2021/06/09 02:33:34;;;;;;;9.93;6.20;;;16.30;99.90;;;16.08;87.61;101812.75;4185315;28;20063;-69
2021/06/09 02:35:38;;;;;;;7.05;4.15;;;16.30;99.90;;;16.14;87.24;101812.09;4186476;28;20029;-69
2021/06/09 02:37:39;;;;;;;6.88;4.38;;;16.30;99.90;;;16.10;87.38;101803.59;4185038;28;20037;-69
2021/06/09 02:39:40;;;;;;;5.50;4.30;;;16.30;99.90;;;16.16;86.65;101802.94;4185207;28;20597;-69
2021/06/09 02:41:41;;;;;;;5.47;4.00;;;16.30;99.90;;;16.11;86.86;101807.94;4186307;28;20025;-69
2021/06/09 02:43:43;;;;;;;6.13;5.18;;;16.30;99.90;;;16.17;86.44;101809.09;4186244;28;20036;-69
2021/06/09 02:45:55;;;;;;;5.28;4.60;;;16.30;99.90;;;16.28;85.29;101809.59;4186574;28;20036;-69
2021/06/09 02:48:05;;;;;;;4.32;3.92;;;16.30;99.90;;;16.09;86.96;101801.97;4185327;28;20067;-69
2021/06/09 02:50:08;;;;;;;6.78;5.32;;;16.30;99.90;;;16.12;86.08;101800.81;4186441;28;20428;-69
2021/06/09 02:52:32;;;;;;;4.95;3.90;;;16.30;99.90;;;16.11;86.72;101807.09;4186338;28;20035;-69
2021/06/09 02:55:25;;;;;;;7.13;4.87;;;16.30;99.90;;;16.13;86.06;101813.94;4185232;28;20490;-69
2021/06/09 02:57:50;;;;;;;5.85;4.43;;;16.30;99.90;;;16.11;86.44;101810.59;4176920;28;20302;-69
2021/06/09 03:00:23;;;;;;;5.93;5.20;;;16.30;99.90;;;16.05;86.66;101805.94;4186259;28;20036;-69
2021/06/09 03:02:32;;;;;;;5.50;4.97;;;16.20;99.90;;;16.09;85.96;101804.63;4185640;28;20037;-69
2021/06/09 03:05:21;;;;;;;7.60;5.43;;;16.20;99.90;;;16.05;86.11;101819.25;4185094;28;20033;-69
2021/06/09 03:07:39;;;;;;;5.22;4.22;;;16.20;99.90;;;15.95;87.01;101815.91;4181305;28;20097;-69
2021/06/09 03:10:03;;;;;;;4.38;3.88;;;16.20;99.90;;;15.86;87.35;101820.38;4184774;28;20025;-69
2021/06/09 03:12:22;;;;;;;8.35;5.70;;;16.10;99.90;;;15.84;87.10;101814.41;4185554;28;20087;-69
2021/06/09 03:17:15;;;;;;;5.25;4.57;;;16.10;99.90;;;15.78;87.17;101809.75;4184799;28;20408;-69
2021/06/09 03:19:44;;;;;;;5.45;4.80;;;16.00;99.90;;;15.77;87.59;101809.94;4184694;28;20087;-69
2021/06/09 03:22:06;;;;;;;7.22;5.55;;;15.90;99.90;;;15.84;86.72;101816.22;4198346;28;20036;-69
2021/06/09 03:24:28;;;;;;;6.28;4.93;;;15.90;99.90;;;15.88;86.77;101809.59;4184707;28;20096;-69
2021/06/09 03:26:54;;;;;;;4.90;4.43;;;16.00;99.90;;;15.68;87.31;101810.91;4185424;28;20027;-70
2021/06/09 03:29:10;;;;;;;6.63;4.72;;;15.90;99.90;;;15.35;88.15;101815.25;4185787;28;20031;-69
2021/06/09 03:31:22;;;;;;;6.40;4.40;;;15.70;99.90;;;15.29;88.98;101814.06;4184411;28;20063;-69
2021/06/09 03:33:28;;;;;;;6.70;4.63;;;15.60;99.90;;;15.23;89.74;101814.69;4184492;28;20040;-70
2021/06/09 03:35:36;;;;;;;7.13;5.10;;;15.50;99.90;;;15.35;88.50;101818.72;4183969;28;20025;-70
2021/06/09 03:37:45;;;;;;;6.07;4.82;;;15.50;99.90;;;15.18;88.63;101814.34;4180194;28;20056;-69
2021/06/09 03:39:51;;;;;;;6.00;4.80;;;15.40;99.90;;;15.17;89.12;101807.34;4185322;28;20044;-69
2021/06/09 03:41:58;;;;;;;7.85;5.38;;;15.40;99.90;;;15.13;89.20;101805.19;4184013;28;20100;-70
2021/06/09 03:44:02;;;;;;;8.05;5.95;;;15.30;99.90;;;15.23;88.32;101806.72;4185351;28;20025;-70
2021/06/09 03:46:08;;;;;;;8.20;5.53;;;15.30;99.90;;;15.17;88.90;101803.91;4167760;28;20029;-69
2021/06/09 03:48:11;;;;;;;5.93;5.15;;;15.40;99.90;;;15.02;89.87;101811.63;4184347;28;20036;-69
2021/06/09 03:50:16;;;;;;;5.97;5.37;;;15.30;99.90;;;14.83;90.18;101809.19;4184360;28;20056;-70
2021/06/09 03:52:19;;;;;;;6.00;4.97;;;15.10;99.90;;;14.82;90.25;101816.31;4184237;28;20271;-69
2021/06/09 03:54:22;;;;;;;8.00;6.70;;;15.10;99.90;;;14.76;90.04;101816.97;4183995;28;20024;-69
2021/06/09 03:56:24;;;;;;;7.35;5.30;;;15.00;99.90;;;14.62;90.96;101822.84;4183819;28;20040;-69
2021/06/09 03:58:27;;;;;;;7.90;6.00;;;14.90;99.90;;;14.79;90.16;101827.25;4184112;28;20025;-69
2021/06/09 04:00:30;;;;;;;8.82;6.15;;;14.90;99.90;;;14.57;90.46;101813.69;4183990;28;20532;-69
2021/06/09 04:02:32;;;;;;;7.47;6.30;;;14.80;99.90;;;14.33;91.78;101807.22;4183759;28;20040;-69
2021/06/09 04:04:36;;;;;;;7.15;6.13;;;14.70;99.90;;;14.35;92.34;101820.31;4184015;28;20393;-69
2021/06/09 04:06:42;;;;;;;10.07;6.60;;;14.60;99.90;;;14.37;91.90;101816.53;4183943;28;20052;-70
2021/06/09 04:08:44;;;;;;;6.97;6.25;;;14.60;99.90;;;14.32;92.09;101802.91;4183833;28;20782;-70
2021/06/09 04:10:47;;;;;;;7.72;6.63;;;14.60;99.90;;;14.18;92.38;101808.72;4183718;28;20032;-69
2021/06/09 04:12:48;;;;;;;7.63;6.63;;;14.50;99.90;;;14.04;93.42;101814.56;4183920;28;20025;-70
2021/06/09 04:14:52;;;;;;;8.70;6.57;;;14.40;99.90;;;14.12;93.45;101817.31;4183927;28;20028;-69
2021/06/09 04:16:54;;;;;;;;;;;14.40;99.90;;;13.98;93.51;101811.69;4185332;28;20120;-70
2021/06/09 04:18:55;;;;;;;7.82;6.95;;;14.30;99.90;;;13.96;93.64;101811.84;4183856;28;20386;-70
2021/06/09 04:20:59;;;;;;;8.05;6.60;;;14.30;99.90;;;14.00;93.88;101807.06;4184974;28;20029;-69
2021/06/09 04:23:01;;;;;;;8.57;6.85;;;14.20;99.90;;;13.97;93.96;101816.16;4183842;28;20025;-69
2021/06/09 04:25:06;;;;;;;10.70;7.38;;;14.20;99.90;;;13.87;94.31;101815.41;4184679;28;20060;-69
2021/06/09 04:27:30;;;;;;;10.68;8.10;;;14.20;99.90;;;13.76;94.80;101820.94;4184587;28;20496;-69
2021/06/09 04:29:32;;;;;;;8.27;6.68;;;14.20;99.90;;;13.84;94.81;101813.88;4183656;28;20025;-69
2021/06/09 04:31:33;;;;;;;9.07;6.47;;;14.10;99.90;;;13.86;94.82;101827.81;4183672;28;20108;-69
2021/06/09 04:33:34;;;;;;;9.13;7.18;;;14.10;99.90;;;13.85;95.22;101818.22;4184717;28;20467;-69
2021/06/09 04:35:39;;;;;;;9.02;7.75;;;14.10;99.90;;;13.89;94.90;101826.69;4183434;28;20048;-69
2021/06/09 04:37:39;;;;;;;10.60;8.27;;;14.10;99.90;;;13.83;94.33;101825.47;4179561;28;20060;-69
2021/06/09 04:39:41;;;;;;;9.45;7.45;;;14.10;99.90;;;14.04;93.59;101824.31;4184545;28;20033;-69
2021/06/09 04:41:42;;;;;;;8.38;6.90;;;14.10;99.90;;;13.93;94.09;101821.91;4183360;28;20075;-69
2021/06/09 04:43:43;;;;;;;8.32;7.20;;;14.10;99.90;;;13.89;94.59;101818.72;4184693;28;20108;-69
2021/06/09 04:45:44;;;;;;;8.50;6.93;;;14.10;99.90;;;13.81;94.96;101808.03;4184911;28;20032;-69
2021/06/09 04:47:46;;;;;;;11.40;7.93;;;14.10;99.90;;;13.81;94.85;101811.53;4183579;28;20395;-69
2021/06/09 04:49:47;;;;;;;9.15;8.15;;;14.10;99.90;;;13.90;94.91;101823.06;4184821;28;20037;-69
2021/06/09 04:51:48;;;;;;;9.07;8.18;;;14.10;99.90;;;13.73;95.17;101805.31;4184691;28;20025;-69
2021/06/09 04:53:49;;;;;;;10.45;7.18;;;14.20;99.90;;;13.85;95.79;101830.63;4184720;28;20025;-69
2021/06/09 04:55:56;;;;;;;10.75;7.80;;;14.10;99.90;;;13.92;95.40;101823.72;4184228;28;20064;-69
2021/06/09 04:57:56;;;;;;;8.98;6.65;;;14.10;99.90;;;13.95;95.48;101831.38;4184736;28;20061;-69
2021/06/09 04:59:57;;;;;;;8.18;6.40;;;14.20;99.90;;;14.00;95.38;101829.13;4184619;28;20029;-69
2021/06/09 05:01:58;;;;;;;8.65;6.45;;;14.20;99.90;;;14.07;95.17;101832.81;4183317;28;20436;-69
2021/06/09 05:03:59;;;;;;;10.30;7.35;;;14.30;99.90;;;14.06;95.06;101825.03;4184128;28;20025;-69
2021/06/09 05:06:00;;;;;;;9.13;7.07;;;14.30;99.90;;;13.96;95.38;101822.44;4184571;28;20457;-69
2021/06/09 05:08:01;;;;;;;8.40;7.32;;;14.30;99.90;;;13.96;95.47;101826.91;4184646;28;20064;-69
2021/06/09 05:10:04;;;;;;;7.70;6.97;;;14.30;99.90;;;14.04;95.57;101835.78;4184460;28;20033;-69
2021/06/09 05:12:35;;;;;;;7.40;6.40;;;14.30;99.90;;;14.14;95.20;101833.88;4184062;28;20025;-69
2021/06/09 05:15:04;;;;;;;9.15;7.00;;;14.40;99.90;;;14.20;95.31;101824.47;4184533;28;20037;-69
2021/06/09 05:17:07;;;;;;;11.52;6.97;;;14.40;99.90;;;14.21;94.42;101821.69;4184180;28;20083;-69
2021/06/09 05:19:10;;;;;;;8.55;7.38;;;14.50;99.90;;;14.32;94.04;101824.13;4184616;28;20033;-70
2021/06/09 05:21:11;;;;;;;7.47;6.68;;;14.60;99.90;;;14.35;94.46;101822.97;4183187;28;20017;-69
2021/06/09 05:23:45;;;;;;;10.65;7.88;;;14.50;99.90;;;14.47;93.75;101823.56;4183270;28;20159;-69
2021/06/09 05:25:50;;;;;;;8.43;7.57;;;14.60;99.90;;;14.75;92.39;101833.06;4183263;28;20021;-69
2021/06/09 05:27:53;;;;;;;8.23;7.15;;;14.80;99.90;;;14.79;92.07;101826.44;4183207;28;20033;-69
2021/06/09 05:29:56;;;;;;;9.85;8.27;;;15.00;99.90;;;14.87;91.23;101829.16;4183101;28;20029;-69
2021/06/09 05:31:59;;;;;;;11.75;8.00;;;15.10;99.90;;;14.94;90.73;101832.84;4183479;28;20112;-69
2021/06/09 05:34:01;;;;;;;8.35;6.97;;;15.20;99.90;;;15.00;90.57;101840.16;4184399;28;20029;-69
2021/06/09 05:36:03;;;;;;;9.15;7.80;;;15.20;99.90;;;15.07;90.05;101835.06;4183844;28;20039;-70
2021/06/09 05:38:04;;;;;;;8.70;7.55;;;15.30;99.90;;;15.11;89.78;101833.75;4189582;28;20115;-70
2021/06/09 05:40:08;;;;;;;12.32;8.00;;;15.40;99.90;;;15.22;89.16;101844.09;4183106;28;20109;-70
2021/06/09 05:42:13;;;;;;;10.35;7.57;;;15.40;99.90;;;15.10;89.56;101834.75;4187685;28;20033;-67
2021/06/09 05:44:17;;;;;;;9.05;7.22;;;15.50;99.90;;;15.20;89.02;101836.28;4182886;28;20029;-67
2021/06/09 05:46:19;;;;;;;10.70;6.85;;;15.60;99.90;;;15.15;89.30;101833.28;4185515;28;20130;-67
2021/06/09 05:48:20;;;;;;;8.65;6.78;;;15.70;99.90;;;15.25;88.96;101834.00;4186132;28;20096;-69
2021/06/09 05:50:24;;;;;;;10.55;6.75;;;15.70;99.90;;;15.16;89.12;101831.47;4187101;28;20081;-69
2021/06/09 05:52:28;;;;;;;9.20;7.43;;;15.70;99.90;;;15.18;88.95;101838.28;4185835;28;20052;-69
2021/06/09 05:54:42;;;;;;;8.90;7.15;;;15.70;99.90;;;15.31;88.73;101838.66;4185723;28;20033;-69
2021/06/09 05:56:43;;;;;;;7.23;6.30;;;15.70;99.90;;;15.29;88.84;101822.03;4186780;28;20504;-70
2021/06/09 05:58:44;;;;;;;11.10;6.90;;;15.70;99.90;;;15.24;89.36;101827.00;4185858;28;20298;-70
2021/06/09 06:01:00;;;;;;;8.40;6.88;;;15.80;99.90;;;15.26;89.08;101829.50;4186836;28;20029;-69
2021/06/09 06:03:05;;;;;;;10.15;6.93;;;15.90;99.90;;;15.16;89.64;101837.59;4187078;28;20021;-69
2021/06/09 06:05:08;;;;;;;10.43;7.47;;;15.80;99.90;;;15.32;89.61;101835.00;4182658;28;20032;-69
2021/06/09 06:07:11;;;;;;;8.43;7.20;;;15.80;99.90;;;15.37;88.78;101838.03;4185429;28;20028;-69
2021/06/09 06:09:12;;;;;;;8.13;6.80;;;15.90;99.90;;;15.37;88.55;101835.38;4186240;28;20036;-69
2021/06/09 06:11:14;;;;;;;9.68;7.00;;;15.90;99.90;;;15.39;88.62;101835.19;4185292;28;20025;-69
2021/06/09 06:13:16;;;;;;;7.88;6.40;;;16.00;99.90;;;15.55;88.92;101837.13;4186678;28;20028;-69
2021/06/09 06:15:17;;;;;;;10.70;8.50;;;16.00;99.90;;;15.42;89.61;101840.19;4185334;28;20054;-69
2021/06/09 06:17:19;;;;;;;8.65;6.88;;;16.00;99.90;;;15.55;88.88;101843.28;4186759;28;20438;-69
2021/06/09 06:19:20;;;;;;;10.60;7.78;;;16.10;99.90;;;15.26;89.51;101834.84;4186430;28;20078;-69
2021/06/09 06:21:21;;;;;;;10.15;7.53;;;16.10;99.90;;;15.16;90.21;101844.75;4185321;28;20112;-69
2021/06/09 06:23:25;;;;;;;9.77;7.13;;;16.10;99.90;;;15.30;90.26;101842.31;4186381;28;20033;-69
2021/06/09 06:25:26;;;;;;;11.35;7.35;;;16.10;99.90;;;15.41;89.52;101850.00;4186222;28;20035;-69
2021/06/09 06:27:27;;;;;;;8.20;6.82;;;16.00;99.90;;;15.50;89.24;101832.31;4185072;28;20661;-69
2021/06/09 06:29:28;;;;;;;10.20;7.20;;;16.10;99.90;;;15.60;88.20;101851.59;4186307;28;20111;-69
2021/06/09 06:31:30;;;;;;;9.68;6.75;;;16.10;99.90;;;15.68;88.78;101829.53;4186132;28;20033;-69
2021/06/09 06:33:32;;;;;;;8.40;6.20;;;16.20;99.90;;;15.55;88.60;101845.94;4186348;28;20097;-69
2021/06/09 06:35:33;;;;;;;7.63;6.30;;;16.30;99.90;;;15.67;88.18;101841.16;4184863;28;20056;-69
2021/06/09 06:37:34;;;;;;;7.47;6.50;;;16.30;99.90;;;15.75;87.43;101838.50;4212483;28;20122;-69
2021/06/09 06:39:36;;;;;;;9.00;6.72;;;16.30;99.90;;;15.54;88.06;101844.25;4186046;28;20032;-69
2021/06/09 06:41:37;;;;;;;7.43;6.50;;;16.30;99.90;;;15.74;87.92;101850.16;4184841;28;20074;-70
2021/06/09 06:43:40;;;;;;;7.65;6.15;;;16.30;99.90;;;15.86;87.60;101854.97;4183887;28;20075;-69
2021/06/09 06:45:42;;;;;;;8.68;6.38;;;16.30;99.90;;;15.95;87.08;101850.50;4185759;28;20025;-69
2021/06/09 06:47:44;;;;;;;7.65;6.43;;;16.40;99.90;;;15.96;86.45;101850.34;4183304;28;20029;-69
2021/06/09 06:49:47;;;;;;;8.13;5.13;;;16.50;99.90;;;16.13;86.39;101848.53;4185296;28;20033;-69
2021/06/09 06:51:51;;;;;;;9.23;5.27;;;16.50;99.90;;;16.22;86.00;101860.03;4198274;28;20071;-68
2021/06/09 06:53:55;;;;;;;9.55;5.38;;;16.60;99.90;;;16.25;85.56;101852.53;4185421;28;20303;-69
2021/06/09 06:56:02;;;;;;;8.63;6.18;;;16.70;99.90;;;16.32;85.88;101860.69;4188963;28;20035;-68
2021/06/09 06:58:05;;;;;;;10.15;6.10;;;16.80;99.90;;;16.45;85.39;101855.72;4185268;28;20296;-69
2021/06/09 07:00:17;;;;;;;6.57;5.53;;;16.80;99.90;;;16.50;85.80;101862.19;4184254;28;20038;-69
2021/06/09 07:02:19;;;;;;;7.22;5.65;;;16.80;99.90;;;16.57;84.37;101860.56;4185470;28;20021;-69
2021/06/09 07:04:21;;;;;;;8.15;5.47;;;17.00;99.90;;;16.70;84.35;101867.19;4185650;28;20029;-69
2021/06/09 07:06:22;;;;;;;8.75;5.57;;;17.10;99.90;;;16.57;83.75;101865.91;4185415;28;20029;-69
2021/06/09 07:08:24;;;;;;;7.88;6.00;;;17.20;99.90;;;16.64;84.05;101870.53;4182537;28;20048;-68
2021/06/09 07:10:27;;;;;;;8.75;5.18;;;17.20;99.90;;;16.59;84.20;101868.38;4178564;28;20543;-68
2021/06/09 07:12:28;;;;;;;7.60;5.53;;;17.20;99.90;;;16.69;84.16;101868.22;4184030;28;20116;-68
2021/06/09 07:14:30;;;;;;;8.07;5.50;;;17.30;99.90;;;16.66;83.73;101864.06;4184134;28;20111;-68
2021/06/09 07:16:33;;;;;;;6.07;4.85;;;17.30;99.90;;;16.79;83.65;101869.69;4184057;28;20040;-70
2021/06/09 07:18:41;;;;;;;7.85;5.60;;;17.30;99.90;;;16.79;83.64;101875.00;4185127;28;20549;-70
2021/06/09 07:20:43;;;;;;;7.18;5.30;;;17.40;99.90;;;16.84;83.54;101864.69;4185377;28;20101;-69
2021/06/09 07:22:45;;;;;;;6.70;5.20;;;17.40;99.90;;;17.11;82.70;101882.94;4183307;28;20493;-69
2021/06/09 07:24:46;;;;;;;7.00;5.05;;;17.50;99.90;;;17.20;83.61;101888.28;4180540;28;20029;-69
2021/06/09 07:26:49;;;;;;;8.32;5.85;;;17.60;99.90;;;17.23;82.55;101888.78;4186006;28;20111;-69
2021/06/09 07:28:57;;;;;;;9.05;5.00;;;17.70;99.90;;;17.21;82.91;101889.91;4184286;28;20032;-69
2021/06/09 07:31:00;;;;;;;7.32;4.97;;;17.80;99.90;;;17.29;82.83;101889.91;4185063;28;20477;-69
2021/06/09 07:33:06;;;;;;;5.50;4.53;;;17.90;99.90;;;17.37;82.97;101892.53;4184064;28;20029;-69
2021/06/09 07:35:08;;;;;;;5.25;4.75;;;18.00;99.90;;;17.53;82.59;101900.50;4185225;28;20021;-69
2021/06/09 07:37:14;;;;;;;8.27;5.30;;;18.00;99.90;;;17.63;81.77;101896.63;4184890;28;20045;-68
2021/06/09 07:39:24;;;;;;;7.13;4.45;;;18.10;99.90;;;17.74;82.00;101902.59;4183984;28;20017;-68
2021/06/09 07:41:29;;;;;;;7.97;4.30;;;18.20;99.90;;;17.84;82.11;101900.53;4185215;28;20100;-69
2021/06/09 07:43:37;;;;;;;3.85;3.40;;;18.30;99.90;;;17.94;81.54;101907.31;4185264;28;20025;-69
2021/06/09 07:45:40;;;;;;;7.05;5.15;;;18.40;99.90;;;17.97;81.64;101906.13;4185014;28;20025;-69
2021/06/09 07:47:44;;;;;;;6.25;5.10;;;18.50;99.90;;;18.14;80.25;101915.69;4183931;28;20029;-69
2021/06/09 07:49:49;;;;;;;6.33;5.23;;;18.60;99.90;;;18.17;80.33;101915.34;4184179;28;20053;-69
2021/06/09 07:51:50;;;;;;;9.32;4.93;;;18.60;99.90;;;18.21;78.69;101906.81;4184969;28;20272;-69
2021/06/09 07:53:57;;;;;;;8.27;4.40;;;18.80;99.90;;;18.27;78.59;101913.28;4184984;28;20080;-69
2021/06/09 07:55:59;;;;;;;6.88;5.25;;;18.80;99.90;;;18.43;77.82;101912.34;4184593;28;20036;-69
2021/06/09 07:58:04;;;;;;;6.50;5.43;;;18.90;99.90;;;18.51;76.64;101910.47;4184922;28;20060;-69
2021/06/09 08:00:11;;;;;;;8.05;5.60;;;19.00;99.90;;;18.60;76.66;101904.06;4185205;28;20032;-69
2021/06/09 08:02:17;;;;;;;5.72;5.03;;;19.10;99.90;;;18.62;76.67;101898.50;4185208;28;20495;-69
2021/06/09 08:04:18;;;;;;;6.28;4.78;;;19.20;99.90;;;18.69;76.48;101894.94;4184815;28;20027;-69
2021/06/09 08:06:20;;;;;;;7.72;4.60;;;19.30;99.90;;;18.95;76.60;101897.19;4183545;28;20067;-69
2021/06/09 08:08:21;;;;;;;6.45;4.70;;;19.40;99.90;;;18.96;75.91;101893.53;4183388;28;20033;-70
2021/06/09 08:10:23;;;;;;;5.80;3.72;;;19.50;99.90;;;19.14;76.89;101893.16;4183410;28;20398;-69
2021/06/09 08:12:24;;;;;;;5.38;4.65;;;19.60;99.90;;;19.27;75.50;101898.69;4183775;28;20115;-69
2021/06/09 08:14:26;;;;;;;7.00;4.50;;;19.70;99.90;;;19.41;74.82;101900.56;4183733;28;20021;-69
2021/06/09 08:16:28;;;;;;;5.45;4.35;;;19.90;99.90;;;19.56;74.21;101893.34;4183496;28;20074;-69
2021/06/09 08:18:28;;;;;;;9.52;5.35;;;20.10;99.90;;;19.46;73.97;101890.13;4184768;28;20029;-69
2021/06/09 08:20:31;;;;;;;5.53;4.10;;;20.10;99.90;;;19.66;74.16;101901.91;4184844;28;20025;-70
2021/06/09 08:22:31;;;;;;;6.68;4.35;;;20.20;99.90;;;19.77;73.53;101908.66;4184780;28;20025;-69
2021/06/09 08:24:32;;;;;;;5.72;5.00;;;20.40;99.90;;;19.87;72.63;101912.69;4184702;28;20181;-69
2021/06/09 08:26:34;;;;;;;4.88;4.18;;;20.50;99.90;;;19.90;72.53;101911.47;4184128;28;20373;-69
2021/06/09 08:28:37;;;;;;;7.60;5.18;;;20.60;99.90;;;19.92;72.39;101908.63;4184966;28;20033;-70
2021/06/09 08:30:38;;;;;;;6.67;4.00;;;20.70;99.90;;;20.07;73.55;101920.13;4183375;28;20028;-69
2021/06/09 08:32:39;;;;;;;6.00;3.97;;;20.80;99.90;;;19.98;72.79;101918.56;4183448;28;20100;-69
2021/06/09 08:34:40;;;;;;;4.50;3.88;;;20.90;99.90;;;20.15;72.20;101923.50;4184455;28;20055;-69
2021/06/09 08:36:44;;;;;;;4.75;4.25;;;21.00;99.90;;;20.03;72.74;101918.84;4184109;28;20374;-69
2021/06/09 08:38:49;;;;;;;4.97;3.70;;;21.00;99.90;;;20.36;72.05;101917.34;4183102;28;20678;-70
2021/06/09 08:40:50;;;;;;;7.18;3.90;;;21.10;99.90;;;20.48;72.40;101910.47;4184574;28;20480;-70